Delson, Canada
Current Conditions -  °F | °C
As of 5:00 PM on Thursday 23 Oct 2014 (Local Time) from CYUL Reporting Station
Light Rain Light Rain  
Wind Chill: 40°   Ceiling: 3700
Heat Index: 46°   Visibility: 10mi
Dew Point: 43°   Wind: 16mph
Humidity: 87%   Direction: 30°NNE
Pressure: 30"   Gusts: 25mph
Location:  45.37°N, 73.55°W
Report Text: CYUL 232100Z 03014G22KT 10SM -RA FEW025 OVC037 08/06 A3000 RMK SC1SC8 SC TR SLP161
Loading
Personal Weather Stations






























Interactive Weather Map
Tropical Storm Tracking
New forecast layout! Learn more

10-Day Weather Forecast

Advertisements
Track Severe Weather on mobile